sensor_id;sensor_type;location;lat;lon;timestamp;P1;durP1;ratioP1;P2;durP2;ratioP2
48207;SDS011;33997;53.278;9.708;2023-04-29T00:01:04;55.15;;;35.53;;
48207;SDS011;33997;53.278;9.708;2023-04-29T00:03:29;52.45;;;32.92;;
48207;SDS011;33997;53.278;9.708;2023-04-29T00:05:56;55.78;;;34.03;;
48207;SDS011;33997;53.278;9.708;2023-04-29T00:08:22;57.92;;;34.28;;
48207;SDS011;33997;53.278;9.708;2023-04-29T00:10:48;52.88;;;33.63;;
48207;SDS011;33997;53.278;9.708;2023-04-29T00:13:14;57.65;;;33.92;;
48207;SDS011;33997;53.278;9.708;2023-04-29T00:15:40;48.08;;;33.45;;
48207;SDS011;33997;53.278;9.708;2023-04-29T00:18:06;47.80;;;32.38;;
48207;SDS011;33997;53.278;9.708;2023-04-29T00:20:33;56.38;;;33.40;;
48207;SDS011;33997;53.278;9.708;2023-04-29T00:22:59;57.22;;;33.78;;
48207;SDS011;33997;53.278;9.708;2023-04-29T00:25:24;56.13;;;33.60;;
48207;SDS011;33997;53.278;9.708;2023-04-29T00:27:50;57.67;;;32.83;;
48207;SDS011;33997;53.278;9.708;2023-04-29T00:30:15;50.10;;;32.00;;
48207;SDS011;33997;53.278;9.708;2023-04-29T00:32:41;54.88;;;34.25;;
48207;SDS011;33997;53.278;9.708;2023-04-29T00:35:07;47.88;;;32.22;;
48207;SDS011;33997;53.278;9.708;2023-04-29T00:37:33;58.67;;;34.40;;
48207;SDS011;33997;53.278;9.708;2023-04-29T00:39:59;55.28;;;35.85;;
48207;SDS011;33997;53.278;9.708;2023-04-29T00:42:29;56.40;;;34.00;;
48207;SDS011;33997;53.278;9.708;2023-04-29T00:44:57;57.50;;;34.65;;
48207;SDS011;33997;53.278;9.708;2023-04-29T00:47:22;59.63;;;34.47;;
48207;SDS011;33997;53.278;9.708;2023-04-29T00:49:48;52.55;;;34.53;;
48207;SDS011;33997;53.278;9.708;2023-04-29T00:52:13;50.55;;;32.97;;
48207;SDS011;33997;53.278;9.708;2023-04-29T00:54:40;51.40;;;32.38;;
48207;SDS011;33997;53.278;9.708;2023-04-29T00:57:06;48.38;;;30.45;;
48207;SDS011;33997;53.278;9.708;2023-04-29T00:59:31;46.30;;;29.58;;
48207;SDS011;33997;53.278;9.708;2023-04-29T01:01:58;47.90;;;29.45;;
48207;SDS011;33997;53.278;9.708;2023-04-29T01:04:27;43.22;;;28.05;;
48207;SDS011;33997;53.278;9.708;2023-04-29T01:07:06;45.45;;;26.88;;
48207;SDS011;33997;53.278;9.708;2023-04-29T01:17:41;43.25;;;26.85;;
48207;SDS011;33997;53.278;9.708;2023-04-29T01:22:37;42.20;;;26.50;;
48207;SDS011;33997;53.278;9.708;2023-04-29T01:25:03;42.25;;;28.48;;
48207;SDS011;33997;53.278;9.708;2023-04-29T01:27:36;47.30;;;29.00;;
48207;SDS011;33997;53.278;9.708;2023-04-29T01:33:35;40.45;;;25.13;;
48207;SDS011;33997;53.278;9.708;2023-04-29T01:36:29;39.33;;;24.30;;
48207;SDS011;33997;53.278;9.708;2023-04-29T01:42:03;39.90;;;24.90;;
48207;SDS011;33997;53.278;9.708;2023-04-29T01:44:35;38.80;;;24.90;;
48207;SDS011;33997;53.278;9.708;2023-04-29T01:47:02;40.20;;;26.92;;
48207;SDS011;33997;53.278;9.708;2023-04-29T01:49:28;34.65;;;25.45;;
48207;SDS011;33997;53.278;9.708;2023-04-29T01:51:54;43.67;;;26.05;;
48207;SDS011;33997;53.278;9.708;2023-04-29T01:54:19;36.45;;;26.45;;
48207;SDS011;33997;53.278;9.708;2023-04-29T01:56:46;48.38;;;26.40;;
48207;SDS011;33997;53.278;9.708;2023-04-29T01:59:12;42.13;;;26.85;;
48207;SDS011;33997;53.278;9.708;2023-04-29T02:01:37;43.00;;;27.05;;
48207;SDS011;33997;53.278;9.708;2023-04-29T02:04:03;44.50;;;27.25;;
48207;SDS011;33997;53.278;9.708;2023-04-29T02:06:28;41.30;;;27.52;;
48207;SDS011;33997;53.278;9.708;2023-04-29T02:08:56;47.75;;;28.75;;
48207;SDS011;33997;53.278;9.708;2023-04-29T02:11:21;45.45;;;28.05;;
48207;SDS011;33997;53.278;9.708;2023-04-29T02:13:47;44.65;;;28.42;;
48207;SDS011;33997;53.278;9.708;2023-04-29T02:16:13;40.88;;;29.33;;
48207;SDS011;33997;53.278;9.708;2023-04-29T02:18:39;48.47;;;28.52;;
48207;SDS011;33997;53.278;9.708;2023-04-29T02:21:05;46.80;;;28.15;;
48207;SDS011;33997;53.278;9.708;2023-04-29T02:23:31;43.00;;;28.30;;
48207;SDS011;33997;53.278;9.708;2023-04-29T02:25:57;50.33;;;27.67;;
48207;SDS011;33997;53.278;9.708;2023-04-29T02:28:23;43.97;;;28.60;;
48207;SDS011;33997;53.278;9.708;2023-04-29T02:30:48;43.00;;;28.25;;
48207;SDS011;33997;53.278;9.708;2023-04-29T02:33:14;50.15;;;28.35;;
48207;SDS011;33997;53.278;9.708;2023-04-29T02:35:40;43.33;;;27.55;;
48207;SDS011;33997;53.278;9.708;2023-04-29T02:38:06;44.85;;;28.77;;
48207;SDS011;33997;53.278;9.708;2023-04-29T02:40:31;48.28;;;28.70;;
48207;SDS011;33997;53.278;9.708;2023-04-29T02:42:57;46.22;;;28.73;;
48207;SDS011;33997;53.278;9.708;2023-04-29T02:45:22;42.78;;;27.75;;
48207;SDS011;33997;53.278;9.708;2023-04-29T02:47:48;41.88;;;27.25;;
48207;SDS011;33997;53.278;9.708;2023-04-29T02:50:13;42.10;;;26.80;;
48207;SDS011;33997;53.278;9.708;2023-04-29T02:52:39;44.15;;;27.13;;
48207;SDS011;33997;53.278;9.708;2023-04-29T02:55:06;45.42;;;27.48;;
48207;SDS011;33997;53.278;9.708;2023-04-29T02:57:31;43.95;;;26.50;;
48207;SDS011;33997;53.278;9.708;2023-04-29T02:59:57;47.88;;;26.45;;
48207;SDS011;33997;53.278;9.708;2023-04-29T03:02:23;43.30;;;26.88;;
48207;SDS011;33997;53.278;9.708;2023-04-29T03:04:48;41.55;;;26.27;;
48207;SDS011;33997;53.278;9.708;2023-04-29T03:07:14;41.67;;;25.85;;
48207;SDS011;33997;53.278;9.708;2023-04-29T03:09:41;39.05;;;24.55;;
48207;SDS011;33997;53.278;9.708;2023-04-29T03:12:06;38.90;;;25.00;;
48207;SDS011;33997;53.278;9.708;2023-04-29T03:14:32;49.45;;;26.20;;
48207;SDS011;33997;53.278;9.708;2023-04-29T03:16:57;40.40;;;25.17;;
48207;SDS011;33997;53.278;9.708;2023-04-29T03:19:23;40.47;;;24.52;;
48207;SDS011;33997;53.278;9.708;2023-04-29T03:21:48;43.85;;;25.08;;
48207;SDS011;33997;53.278;9.708;2023-04-29T03:24:14;40.15;;;24.92;;
48207;SDS011;33997;53.278;9.708;2023-04-29T03:26:40;39.20;;;23.88;;
48207;SDS011;33997;53.278;9.708;2023-04-29T03:29:06;40.60;;;24.10;;
48207;SDS011;33997;53.278;9.708;2023-04-29T03:31:32;41.00;;;24.15;;
48207;SDS011;33997;53.278;9.708;2023-04-29T03:33:58;39.28;;;23.63;;
48207;SDS011;33997;53.278;9.708;2023-04-29T03:36:23;36.92;;;23.67;;
48207;SDS011;33997;53.278;9.708;2023-04-29T03:38:49;39.97;;;23.45;;
48207;SDS011;33997;53.278;9.708;2023-04-29T03:41:14;38.10;;;24.00;;
48207;SDS011;33997;53.278;9.708;2023-04-29T03:43:40;39.00;;;24.05;;
48207;SDS011;33997;53.278;9.708;2023-04-29T03:46:08;36.88;;;22.67;;
48207;SDS011;33997;53.278;9.708;2023-04-29T03:48:33;35.53;;;23.50;;
48207;SDS011;33997;53.278;9.708;2023-04-29T03:50:59;39.92;;;23.75;;
48207;SDS011;33997;53.278;9.708;2023-04-29T03:53:25;37.42;;;23.45;;
48207;SDS011;33997;53.278;9.708;2023-04-29T03:55:50;38.60;;;24.15;;
48207;SDS011;33997;53.278;9.708;2023-04-29T03:58:16;37.88;;;23.45;;
48207;SDS011;33997;53.278;9.708;2023-04-29T04:00:41;38.10;;;24.88;;
48207;SDS011;33997;53.278;9.708;2023-04-29T04:03:07;38.95;;;24.80;;
48207;SDS011;33997;53.278;9.708;2023-04-29T04:05:33;43.47;;;25.15;;
48207;SDS011;33997;53.278;9.708;2023-04-29T04:07:58;44.83;;;26.30;;
48207;SDS011;33997;53.278;9.708;2023-04-29T04:10:24;42.33;;;25.42;;
48207;SDS011;33997;53.278;9.708;2023-04-29T04:12:50;43.35;;;24.38;;
48207;SDS011;33997;53.278;9.708;2023-04-29T04:15:15;43.05;;;25.25;;
48207;SDS011;33997;53.278;9.708;2023-04-29T04:17:41;42.60;;;24.95;;
48207;SDS011;33997;53.278;9.708;2023-04-29T04:20:07;41.78;;;24.63;;
48207;SDS011;33997;53.278;9.708;2023-04-29T04:22:33;43.85;;;25.00;;
48207;SDS011;33997;53.278;9.708;2023-04-29T04:24:58;34.65;;;22.50;;
48207;SDS011;33997;53.278;9.708;2023-04-29T04:27:23;38.42;;;24.33;;
48207;SDS011;33997;53.278;9.708;2023-04-29T04:29:53;38.80;;;23.13;;
48207;SDS011;33997;53.278;9.708;2023-04-29T04:32:19;37.08;;;23.33;;
48207;SDS011;33997;53.278;9.708;2023-04-29T04:34:48;43.33;;;24.00;;
48207;SDS011;33997;53.278;9.708;2023-04-29T04:37:14;39.97;;;24.45;;
48207;SDS011;33997;53.278;9.708;2023-04-29T04:39:40;35.42;;;22.17;;
48207;SDS011;33997;53.278;9.708;2023-04-29T04:42:06;37.72;;;22.75;;
48207;SDS011;33997;53.278;9.708;2023-04-29T04:44:31;38.15;;;22.38;;
48207;SDS011;33997;53.278;9.708;2023-04-29T04:46:57;34.70;;;21.80;;
48207;SDS011;33997;53.278;9.708;2023-04-29T04:49:25;35.35;;;22.52;;
48207;SDS011;33997;53.278;9.708;2023-04-29T04:51:51;36.80;;;22.70;;
48207;SDS011;33997;53.278;9.708;2023-04-29T04:54:16;37.88;;;23.02;;
48207;SDS011;33997;53.278;9.708;2023-04-29T04:56:42;36.10;;;21.63;;
48207;SDS011;33997;53.278;9.708;2023-04-29T04:59:08;35.00;;;21.55;;
48207;SDS011;33997;53.278;9.708;2023-04-29T05:01:33;38.45;;;22.63;;
48207;SDS011;33997;53.278;9.708;2023-04-29T05:03:59;32.25;;;22.33;;
48207;SDS011;33997;53.278;9.708;2023-04-29T05:06:26;34.72;;;22.13;;
48207;SDS011;33997;53.278;9.708;2023-04-29T05:08:51;32.15;;;20.90;;
48207;SDS011;33997;53.278;9.708;2023-04-29T05:11:17;32.42;;;21.58;;
48207;SDS011;33997;53.278;9.708;2023-04-29T05:13:44;35.35;;;23.20;;
48207;SDS011;33997;53.278;9.708;2023-04-29T05:16:10;32.03;;;21.95;;
48207;SDS011;33997;53.278;9.708;2023-04-29T05:18:35;30.75;;;21.33;;
48207;SDS011;33997;53.278;9.708;2023-04-29T05:21:04;30.73;;;20.60;;
48207;SDS011;33997;53.278;9.708;2023-04-29T05:23:29;32.75;;;20.80;;
48207;SDS011;33997;53.278;9.708;2023-04-29T05:25:55;33.40;;;20.30;;
48207;SDS011;33997;53.278;9.708;2023-04-29T05:28:20;28.67;;;19.92;;
48207;SDS011;33997;53.278;9.708;2023-04-29T05:30:49;30.23;;;19.77;;
48207;SDS011;33997;53.278;9.708;2023-04-29T05:33:15;27.55;;;18.50;;
48207;SDS011;33997;53.278;9.708;2023-04-29T05:35:41;28.77;;;19.55;;
48207;SDS011;33997;53.278;9.708;2023-04-29T05:38:06;30.73;;;19.67;;
48207;SDS011;33997;53.278;9.708;2023-04-29T05:40:32;34.22;;;20.55;;
48207;SDS011;33997;53.278;9.708;2023-04-29T05:42:57;34.72;;;20.58;;
48207;SDS011;33997;53.278;9.708;2023-04-29T05:45:23;29.33;;;19.63;;
48207;SDS011;33997;53.278;9.708;2023-04-29T05:47:49;28.58;;;19.42;;
48207;SDS011;33997;53.278;9.708;2023-04-29T05:50:15;30.23;;;19.52;;
48207;SDS011;33997;53.278;9.708;2023-04-29T05:52:40;26.90;;;19.10;;
48207;SDS011;33997;53.278;9.708;2023-04-29T05:55:06;29.85;;;19.85;;
48207;SDS011;33997;53.278;9.708;2023-04-29T05:57:31;24.45;;;16.75;;
48207;SDS011;33997;53.278;9.708;2023-04-29T05:59:57;27.45;;;18.58;;
48207;SDS011;33997;53.278;9.708;2023-04-29T06:02:24;28.02;;;18.48;;
48207;SDS011;33997;53.278;9.708;2023-04-29T06:04:49;24.05;;;18.45;;
48207;SDS011;33997;53.278;9.708;2023-04-29T06:07:15;26.60;;;18.27;;
48207;SDS011;33997;53.278;9.708;2023-04-29T06:09:41;25.10;;;18.05;;
48207;SDS011;33997;53.278;9.708;2023-04-29T06:12:07;25.65;;;18.17;;
48207;SDS011;33997;53.278;9.708;2023-04-29T06:14:33;26.20;;;17.50;;
48207;SDS011;33997;53.278;9.708;2023-04-29T06:16:59;22.65;;;17.15;;
48207;SDS011;33997;53.278;9.708;2023-04-29T06:19:24;27.08;;;17.70;;
48207;SDS011;33997;53.278;9.708;2023-04-29T06:21:50;25.45;;;17.80;;
48207;SDS011;33997;53.278;9.708;2023-04-29T06:24:15;23.50;;;15.80;;
48207;SDS011;33997;53.278;9.708;2023-04-29T06:26:41;21.05;;;16.00;;
48207;SDS011;33997;53.278;9.708;2023-04-29T06:29:06;23.92;;;17.23;;
48207;SDS011;33997;53.278;9.708;2023-04-29T06:31:32;21.60;;;15.30;;
48207;SDS011;33997;53.278;9.708;2023-04-29T06:33:57;24.13;;;15.82;;
48207;SDS011;33997;53.278;9.708;2023-04-29T06:36:23;24.13;;;16.70;;
48207;SDS011;33997;53.278;9.708;2023-04-29T06:38:48;25.55;;;15.73;;
48207;SDS011;33997;53.278;9.708;2023-04-29T06:41:14;23.00;;;16.15;;
48207;SDS011;33997;53.278;9.708;2023-04-29T06:43:39;20.42;;;15.45;;
48207;SDS011;33997;53.278;9.708;2023-04-29T06:46:07;22.33;;;16.15;;
48207;SDS011;33997;53.278;9.708;2023-04-29T06:48:32;20.08;;;15.02;;
48207;SDS011;33997;53.278;9.708;2023-04-29T06:50:58;20.02;;;13.57;;
48207;SDS011;33997;53.278;9.708;2023-04-29T06:53:24;18.88;;;13.98;;
48207;SDS011;33997;53.278;9.708;2023-04-29T06:55:50;18.17;;;12.38;;
48207;SDS011;33997;53.278;9.708;2023-04-29T06:58:16;19.33;;;12.52;;
48207;SDS011;33997;53.278;9.708;2023-04-29T07:00:43;14.95;;;11.00;;
48207;SDS011;33997;53.278;9.708;2023-04-29T07:03:10;19.00;;;11.85;;
48207;SDS011;33997;53.278;9.708;2023-04-29T07:05:36;17.38;;;11.98;;
48207;SDS011;33997;53.278;9.708;2023-04-29T07:08:04;18.90;;;12.70;;
48207;SDS011;33997;53.278;9.708;2023-04-29T07:10:30;24.42;;;12.68;;
48207;SDS011;33997;53.278;9.708;2023-04-29T07:12:56;18.10;;;11.82;;
48207;SDS011;33997;53.278;9.708;2023-04-29T07:15:21;17.10;;;10.80;;
48207;SDS011;33997;53.278;9.708;2023-04-29T07:17:47;18.50;;;11.40;;
48207;SDS011;33997;53.278;9.708;2023-04-29T07:20:12;15.63;;;10.45;;
48207;SDS011;33997;53.278;9.708;2023-04-29T07:22:38;15.40;;;10.25;;
48207;SDS011;33997;53.278;9.708;2023-04-29T07:25:04;18.10;;;12.07;;
48207;SDS011;33997;53.278;9.708;2023-04-29T07:27:31;15.55;;;11.23;;
48207;SDS011;33997;53.278;9.708;2023-04-29T07:29:58;16.38;;;11.15;;
48207;SDS011;33997;53.278;9.708;2023-04-29T07:32:25;16.83;;;11.40;;
48207;SDS011;33997;53.278;9.708;2023-04-29T07:34:50;14.43;;;10.40;;
48207;SDS011;33997;53.278;9.708;2023-04-29T07:37:16;19.88;;;11.00;;
48207;SDS011;33997;53.278;9.708;2023-04-29T07:39:42;17.50;;;11.23;;
48207;SDS011;33997;53.278;9.708;2023-04-29T07:42:07;17.55;;;10.20;;
48207;SDS011;33997;53.278;9.708;2023-04-29T07:44:33;17.15;;;10.30;;
48207;SDS011;33997;53.278;9.708;2023-04-29T07:46:58;14.98;;;9.95;;
48207;SDS011;33997;53.278;9.708;2023-04-29T07:49:24;15.55;;;9.50;;
48207;SDS011;33997;53.278;9.708;2023-04-29T07:51:50;16.73;;;10.07;;
48207;SDS011;33997;53.278;9.708;2023-04-29T07:54:15;17.48;;;9.48;;
48207;SDS011;33997;53.278;9.708;2023-04-29T07:56:41;16.42;;;9.50;;
48207;SDS011;33997;53.278;9.708;2023-04-29T07:59:06;18.85;;;9.85;;
48207;SDS011;33997;53.278;9.708;2023-04-29T08:01:32;14.52;;;9.27;;
48207;SDS011;33997;53.278;9.708;2023-04-29T08:03:57;15.32;;;9.38;;
48207;SDS011;33997;53.278;9.708;2023-04-29T08:06:23;18.80;;;9.50;;
48207;SDS011;33997;53.278;9.708;2023-04-29T08:08:48;16.17;;;9.02;;
48207;SDS011;33997;53.278;9.708;2023-04-29T08:11:17;13.25;;;9.23;;
48207;SDS011;33997;53.278;9.708;2023-04-29T08:13:43;14.13;;;8.70;;
48207;SDS011;33997;53.278;9.708;2023-04-29T08:16:09;16.17;;;9.48;;
48207;SDS011;33997;53.278;9.708;2023-04-29T08:18:35;14.90;;;9.32;;
48207;SDS011;33997;53.278;9.708;2023-04-29T08:21:01;16.60;;;8.63;;
48207;SDS011;33997;53.278;9.708;2023-04-29T08:23:26;14.07;;;8.68;;
48207;SDS011;33997;53.278;9.708;2023-04-29T08:25:52;12.48;;;8.57;;
48207;SDS011;33997;53.278;9.708;2023-04-29T08:28:19;18.25;;;8.52;;
48207;SDS011;33997;53.278;9.708;2023-04-29T08:30:45;14.68;;;8.77;;
48207;SDS011;33997;53.278;9.708;2023-04-29T08:33:11;23.25;;;9.90;;
48207;SDS011;33997;53.278;9.708;2023-04-29T08:35:36;16.23;;;7.97;;
48207;SDS011;33997;53.278;9.708;2023-04-29T08:38:03;13.63;;;8.30;;
48207;SDS011;33997;53.278;9.708;2023-04-29T08:40:30;17.17;;;7.40;;
48207;SDS011;33997;53.278;9.708;2023-04-29T08:42:59;20.42;;;9.02;;
48207;SDS011;33997;53.278;9.708;2023-04-29T08:45:25;15.18;;;7.40;;
48207;SDS011;33997;53.278;9.708;2023-04-29T08:47:52;11.45;;;7.47;;
48207;SDS011;33997;53.278;9.708;2023-04-29T08:50:20;18.58;;;8.80;;
48207;SDS011;33997;53.278;9.708;2023-04-29T08:52:46;26.55;;;10.02;;
48207;SDS011;33997;53.278;9.708;2023-04-29T08:55:11;14.07;;;8.10;;
48207;SDS011;33997;53.278;9.708;2023-04-29T08:57:37;18.80;;;8.85;;
48207;SDS011;33997;53.278;9.708;2023-04-29T09:00:05;17.08;;;8.10;;
48207;SDS011;33997;53.278;9.708;2023-04-29T09:02:34;13.77;;;8.40;;
48207;SDS011;33997;53.278;9.708;2023-04-29T09:05:08;12.75;;;8.02;;
48207;SDS011;33997;53.278;9.708;2023-04-29T09:07:35;15.68;;;8.45;;
48207;SDS011;33997;53.278;9.708;2023-04-29T09:10:05;11.88;;;7.15;;
48207;SDS011;33997;53.278;9.708;2023-04-29T09:12:31;10.98;;;7.75;;
48207;SDS011;33997;53.278;9.708;2023-04-29T09:14:57;10.73;;;6.70;;
48207;SDS011;33997;53.278;9.708;2023-04-29T09:17:41;8.95;;;6.35;;
48207;SDS011;33997;53.278;9.708;2023-04-29T09:25:25;10.73;;;6.28;;
48207;SDS011;33997;53.278;9.708;2023-04-29T09:27:51;9.45;;;6.22;;
48207;SDS011;33997;53.278;9.708;2023-04-29T09:30:17;11.63;;;6.53;;
48207;SDS011;33997;53.278;9.708;2023-04-29T09:32:43;14.07;;;6.90;;
48207;SDS011;33997;53.278;9.708;2023-04-29T09:35:20;10.68;;;6.75;;
48207;SDS011;33997;53.278;9.708;2023-04-29T09:37:50;9.30;;;5.30;;
48207;SDS011;33997;53.278;9.708;2023-04-29T09:40:30;13.98;;;7.03;;
48207;SDS011;33997;53.278;9.708;2023-04-29T09:42:57;11.02;;;5.57;;
48207;SDS011;33997;53.278;9.708;2023-04-29T09:45:36;11.00;;;6.05;;
48207;SDS011;33997;53.278;9.708;2023-04-29T09:48:03;11.27;;;5.93;;
48207;SDS011;33997;53.278;9.708;2023-04-29T09:50:30;10.40;;;6.05;;
48207;SDS011;33997;53.278;9.708;2023-04-29T09:52:56;11.27;;;5.78;;
48207;SDS011;33997;53.278;9.708;2023-04-29T09:55:22;9.15;;;5.68;;
48207;SDS011;33997;53.278;9.708;2023-04-29T09:57:47;10.70;;;5.75;;
48207;SDS011;33997;53.278;9.708;2023-04-29T10:00:13;9.02;;;6.35;;
48207;SDS011;33997;53.278;9.708;2023-04-29T10:02:40;11.48;;;5.82;;
48207;SDS011;33997;53.278;9.708;2023-04-29T10:05:07;9.40;;;5.50;;
48207;SDS011;33997;53.278;9.708;2023-04-29T10:07:34;8.93;;;5.80;;
48207;SDS011;33997;53.278;9.708;2023-04-29T10:10:03;9.63;;;5.65;;
48207;SDS011;33997;53.278;9.708;2023-04-29T10:12:30;10.63;;;5.53;;
48207;SDS011;33997;53.278;9.708;2023-04-29T10:15:01;11.77;;;6.50;;
48207;SDS011;33997;53.278;9.708;2023-04-29T10:20:09;11.98;;;5.68;;
48207;SDS011;33997;53.278;9.708;2023-04-29T10:22:53;11.30;;;5.03;;
48207;SDS011;33997;53.278;9.708;2023-04-29T10:25:21;9.70;;;5.97;;
48207;SDS011;33997;53.278;9.708;2023-04-29T10:27:49;11.32;;;6.53;;
48207;SDS011;33997;53.278;9.708;2023-04-29T10:30:17;12.18;;;6.00;;
48207;SDS011;33997;53.278;9.708;2023-04-29T10:32:44;10.27;;;6.30;;
48207;SDS011;33997;53.278;9.708;2023-04-29T10:35:11;12.52;;;6.63;;
48207;SDS011;33997;53.278;9.708;2023-04-29T10:37:38;11.52;;;5.80;;
48207;SDS011;33997;53.278;9.708;2023-04-29T10:40:09;11.30;;;5.88;;
48207;SDS011;33997;53.278;9.708;2023-04-29T10:45:24;10.52;;;5.45;;
48207;SDS011;33997;53.278;9.708;2023-04-29T10:55:37;9.82;;;6.25;;
48207;SDS011;33997;53.278;9.708;2023-04-29T10:58:03;10.10;;;6.00;;
48207;SDS011;33997;53.278;9.708;2023-04-29T11:00:30;10.77;;;6.65;;
48207;SDS011;33997;53.278;9.708;2023-04-29T11:02:58;11.48;;;6.75;;
48207;SDS011;33997;53.278;9.708;2023-04-29T11:05:31;12.25;;;7.03;;
48207;SDS011;33997;53.278;9.708;2023-04-29T11:08:14;11.95;;;7.63;;
48207;SDS011;33997;53.278;9.708;2023-04-29T11:10:51;11.10;;;6.63;;
48207;SDS011;33997;53.278;9.708;2023-04-29T11:13:21;9.85;;;6.35;;
48207;SDS011;33997;53.278;9.708;2023-04-29T11:15:51;10.70;;;6.93;;
48207;SDS011;33997;53.278;9.708;2023-04-29T11:18:17;10.55;;;6.32;;
48207;SDS011;33997;53.278;9.708;2023-04-29T11:23:31;8.32;;;6.03;;
48207;SDS011;33997;53.278;9.708;2023-04-29T11:25:59;10.98;;;6.13;;
48207;SDS011;33997;53.278;9.708;2023-04-29T11:28:26;9.00;;;5.45;;
48207;SDS011;33997;53.278;9.708;2023-04-29T11:30:52;12.35;;;5.97;;
48207;SDS011;33997;53.278;9.708;2023-04-29T11:33:21;12.13;;;7.10;;
48207;SDS011;33997;53.278;9.708;2023-04-29T11:35:47;9.60;;;6.30;;
48207;SDS011;33997;53.278;9.708;2023-04-29T11:38:12;13.10;;;6.00;;
48207;SDS011;33997;53.278;9.708;2023-04-29T11:40:41;9.68;;;6.28;;
48207;SDS011;33997;53.278;9.708;2023-04-29T11:43:15;8.75;;;6.00;;
48207;SDS011;33997;53.278;9.708;2023-04-29T11:45:43;11.13;;;5.63;;
48207;SDS011;33997;53.278;9.708;2023-04-29T11:48:19;10.85;;;6.00;;
48207;SDS011;33997;53.278;9.708;2023-04-29T11:50:45;8.20;;;5.63;;
48207;SDS011;33997;53.278;9.708;2023-04-29T11:53:14;9.43;;;5.50;;
48207;SDS011;33997;53.278;9.708;2023-04-29T11:55:43;8.18;;;5.07;;
48207;SDS011;33997;53.278;9.708;2023-04-29T11:58:10;9.43;;;5.95;;
48207;SDS011;33997;53.278;9.708;2023-04-29T12:00:36;11.10;;;5.85;;
48207;SDS011;33997;53.278;9.708;2023-04-29T12:03:06;9.25;;;5.38;;
48207;SDS011;33997;53.278;9.708;2023-04-29T12:05:37;9.07;;;5.70;;
48207;SDS011;33997;53.278;9.708;2023-04-29T12:08:02;10.68;;;5.90;;
48207;SDS011;33997;53.278;9.708;2023-04-29T12:10:34;9.48;;;5.82;;
48207;SDS011;33997;53.278;9.708;2023-04-29T12:13:00;11.15;;;6.35;;
48207;SDS011;33997;53.278;9.708;2023-04-29T12:15:27;9.60;;;6.10;;
48207;SDS011;33997;53.278;9.708;2023-04-29T12:17:53;9.32;;;5.95;;
48207;SDS011;33997;53.278;9.708;2023-04-29T12:20:19;11.55;;;5.85;;
48207;SDS011;33997;53.278;9.708;2023-04-29T12:22:45;9.32;;;5.45;;
48207;SDS011;33997;53.278;9.708;2023-04-29T12:25:11;11.75;;;5.70;;
48207;SDS011;33997;53.278;9.708;2023-04-29T12:27:38;11.13;;;5.57;;
48207;SDS011;33997;53.278;9.708;2023-04-29T12:30:06;6.68;;;4.40;;
48207;SDS011;33997;53.278;9.708;2023-04-29T12:32:36;9.07;;;4.80;;
48207;SDS011;33997;53.278;9.708;2023-04-29T12:35:02;7.25;;;4.78;;
48207;SDS011;33997;53.278;9.708;2023-04-29T12:37:28;7.57;;;4.40;;
48207;SDS011;33997;53.278;9.708;2023-04-29T12:39:54;7.80;;;4.45;;
48207;SDS011;33997;53.278;9.708;2023-04-29T12:42:20;7.80;;;3.25;;
48207;SDS011;33997;53.278;9.708;2023-04-29T12:44:45;7.63;;;3.83;;
48207;SDS011;33997;53.278;9.708;2023-04-29T12:47:12;6.40;;;3.42;;
48207;SDS011;33997;53.278;9.708;2023-04-29T12:49:42;12.43;;;4.03;;
48207;SDS011;33997;53.278;9.708;2023-04-29T12:52:09;8.95;;;3.75;;
48207;SDS011;33997;53.278;9.708;2023-04-29T12:54:38;7.35;;;3.20;;
48207;SDS011;33997;53.278;9.708;2023-04-29T12:57:07;7.20;;;2.80;;
48207;SDS011;33997;53.278;9.708;2023-04-29T12:59:33;6.88;;;3.05;;
48207;SDS011;33997;53.278;9.708;2023-04-29T13:01:59;6.25;;;2.60;;
48207;SDS011;33997;53.278;9.708;2023-04-29T13:04:25;7.40;;;2.55;;
48207;SDS011;33997;53.278;9.708;2023-04-29T13:06:51;6.68;;;3.13;;
48207;SDS011;33997;53.278;9.708;2023-04-29T13:09:22;6.55;;;2.67;;
48207;SDS011;33997;53.278;9.708;2023-04-29T13:11:48;5.18;;;2.75;;
48207;SDS011;33997;53.278;9.708;2023-04-29T13:14:14;6.55;;;2.88;;
48207;SDS011;33997;53.278;9.708;2023-04-29T13:16:40;6.57;;;3.20;;
48207;SDS011;33997;53.278;9.708;2023-04-29T13:19:05;7.20;;;2.95;;
48207;SDS011;33997;53.278;9.708;2023-04-29T13:21:31;5.75;;;3.03;;
48207;SDS011;33997;53.278;9.708;2023-04-29T13:23:56;5.85;;;3.33;;
48207;SDS011;33997;53.278;9.708;2023-04-29T13:26:22;7.97;;;3.65;;
48207;SDS011;33997;53.278;9.708;2023-04-29T13:28:49;6.47;;;3.10;;
48207;SDS011;33997;53.278;9.708;2023-04-29T13:31:15;5.22;;;3.05;;
48207;SDS011;33997;53.278;9.708;2023-04-29T13:33:40;5.75;;;3.17;;
48207;SDS011;33997;53.278;9.708;2023-04-29T13:36:07;7.05;;;3.60;;
48207;SDS011;33997;53.278;9.708;2023-04-29T13:38:32;7.70;;;3.60;;
48207;SDS011;33997;53.278;9.708;2023-04-29T13:40:58;5.25;;;3.03;;
48207;SDS011;33997;53.278;9.708;2023-04-29T13:43:24;8.38;;;3.47;;
48207;SDS011;33997;53.278;9.708;2023-04-29T13:45:49;4.50;;;2.50;;
48207;SDS011;33997;53.278;9.708;2023-04-29T13:48:15;4.78;;;2.85;;
48207;SDS011;33997;53.278;9.708;2023-04-29T13:50:40;7.18;;;2.63;;
48207;SDS011;33997;53.278;9.708;2023-04-29T13:53:06;6.32;;;2.38;;
48207;SDS011;33997;53.278;9.708;2023-04-29T13:55:32;5.53;;;2.30;;
48207;SDS011;33997;53.278;9.708;2023-04-29T13:58:00;4.18;;;2.00;;
48207;SDS011;33997;53.278;9.708;2023-04-29T14:00:26;6.03;;;2.20;;
48207;SDS011;33997;53.278;9.708;2023-04-29T14:02:51;5.95;;;1.77;;
48207;SDS011;33997;53.278;9.708;2023-04-29T14:05:17;3.28;;;1.35;;
48207;SDS011;33997;53.278;9.708;2023-04-29T14:07:43;5.60;;;1.60;;
48207;SDS011;33997;53.278;9.708;2023-04-29T14:10:08;6.38;;;1.73;;
48207;SDS011;33997;53.278;9.708;2023-04-29T14:12:34;5.32;;;1.80;;
48207;SDS011;33997;53.278;9.708;2023-04-29T14:15:00;4.13;;;1.35;;
48207;SDS011;33997;53.278;9.708;2023-04-29T14:17:25;3.40;;;1.50;;
48207;SDS011;33997;53.278;9.708;2023-04-29T14:19:51;3.58;;;1.48;;
48207;SDS011;33997;53.278;9.708;2023-04-29T14:22:17;4.68;;;1.67;;
48207;SDS011;33997;53.278;9.708;2023-04-29T14:24:42;6.80;;;1.77;;
48207;SDS011;33997;53.278;9.708;2023-04-29T14:27:08;3.22;;;1.38;;
48207;SDS011;33997;53.278;9.708;2023-04-29T14:29:33;3.67;;;1.52;;
48207;SDS011;33997;53.278;9.708;2023-04-29T14:31:59;3.15;;;1.45;;
48207;SDS011;33997;53.278;9.708;2023-04-29T14:34:24;1.90;;;1.27;;
48207;SDS011;33997;53.278;9.708;2023-04-29T14:36:50;3.05;;;1.48;;
48207;SDS011;33997;53.278;9.708;2023-04-29T14:39:15;5.90;;;1.50;;
48207;SDS011;33997;53.278;9.708;2023-04-29T14:41:42;3.38;;;1.50;;
48207;SDS011;33997;53.278;9.708;2023-04-29T14:44:08;3.55;;;1.52;;
48207;SDS011;33997;53.278;9.708;2023-04-29T14:46:33;3.53;;;1.35;;
48207;SDS011;33997;53.278;9.708;2023-04-29T14:48:59;3.22;;;1.27;;
48207;SDS011;33997;53.278;9.708;2023-04-29T14:51:24;4.20;;;1.20;;
48207;SDS011;33997;53.278;9.708;2023-04-29T14:53:50;5.45;;;1.30;;
48207;SDS011;33997;53.278;9.708;2023-04-29T14:56:16;4.13;;;1.63;;
48207;SDS011;33997;53.278;9.708;2023-04-29T14:58:42;4.60;;;1.48;;
48207;SDS011;33997;53.278;9.708;2023-04-29T15:01:07;4.72;;;1.50;;
48207;SDS011;33997;53.278;9.708;2023-04-29T15:03:33;2.85;;;1.50;;
48207;SDS011;33997;53.278;9.708;2023-04-29T15:06:02;4.82;;;1.60;;